createdAt,value
2018-02-25T00:00:29.001Z,78.85
2018-02-25T00:01:18.059Z,78.93
2018-02-25T00:02:07.152Z,79.18
2018-02-25T00:02:56.229Z,78.35
2018-02-25T00:03:45.507Z,79.07
2018-02-25T00:04:34.567Z,79.52
2018-02-25T00:05:23.635Z,79.34
2018-02-25T00:06:12.746Z,79.54
2018-02-25T00:07:01.865Z,79.44
2018-02-25T00:07:50.912Z,78.42
2018-02-25T00:08:39.966Z,78.38
2018-02-25T00:09:28.998Z,78.65
2018-02-25T00:10:18.054Z,78.24
2018-02-25T00:11:07.220Z,77.73
2018-02-25T00:11:56.250Z,78.09
2018-02-25T00:12:45.349Z,78.07
2018-02-25T00:13:34.366Z,78.31
2018-02-25T00:14:23.429Z,78.39
2018-02-25T00:15:12.482Z,78.37
2018-02-25T00:16:01.538Z,78.48
2018-02-25T00:16:50.617Z,78.54
2018-02-25T00:17:39.659Z,78.56
2018-02-25T00:18:28.702Z,78.68
2018-02-25T00:19:17.730Z,79.01
2018-02-25T00:20:06.785Z,79.04
2018-02-25T00:20:55.836Z,78.63
2018-02-25T00:21:44.918Z,78.39
2018-02-25T00:22:34.206Z,79.00
2018-02-25T00:23:23.240Z,78.98
2018-02-25T00:24:12.300Z,78.84
2018-02-25T00:25:01.343Z,78.36
2018-02-25T00:25:50.378Z,78.46
2018-02-25T00:26:39.433Z,77.52
2018-02-25T00:27:28.568Z,77.44
2018-02-25T00:28:17.632Z,77.36
2018-02-25T00:29:06.680Z,78.24
2018-02-25T00:29:55.731Z,78.28
2018-02-25T00:30:44.813Z,77.95
2018-02-25T00:31:33.877Z,78.51
2018-02-25T00:32:22.941Z,78.62
2018-02-25T00:33:12.043Z,78.01
2018-02-25T00:34:01.082Z,78.34
2018-02-25T00:34:50.140Z,79.04
2018-02-25T00:35:39.202Z,78.78
2018-02-25T00:36:28.261Z,78.79
2018-02-25T00:37:17.340Z,78.57
2018-02-25T00:38:06.416Z,78.70
2018-02-25T00:38:55.457Z,79.03
2018-02-25T00:39:44.491Z,78.75
2018-02-25T00:40:33.551Z,79.20
2018-02-25T00:41:25.564Z,78.87
2018-02-25T00:42:14.616Z,78.58
2018-02-25T00:43:03.676Z,78.67
2018-02-25T00:43:52.820Z,78.45
2018-02-25T00:44:41.893Z,78.62
2018-02-25T00:45:31.006Z,77.82
2018-02-25T00:46:20.073Z,77.77
2018-02-25T00:47:09.198Z,77.32
2018-02-25T00:47:58.216Z,77.60
2018-02-25T00:48:47.252Z,77.34
2018-02-25T00:49:36.339Z,77.21
2018-02-25T00:50:25.397Z,77.03
2018-02-25T00:51:14.450Z,76.57
2018-02-25T00:52:03.513Z,77.23
2018-02-25T00:52:52.555Z,77.05
2018-02-25T00:53:41.602Z,76.91
2018-02-25T00:54:30.661Z,77.17
2018-02-25T00:55:19.750Z,77.58
2018-02-25T00:56:08.797Z,77.72
2018-02-25T00:56:57.866Z,78.08
2018-02-25T00:57:46.916Z,77.99
2018-02-25T00:58:35.958Z,77.92
2018-02-25T00:59:25.129Z,78.34
2018-02-25T01:00:14.231Z,78.19
2018-02-25T01:01:03.642Z,77.91
2018-02-25T01:01:52.679Z,78.14
2018-02-25T01:02:41.728Z,78.01
2018-02-25T01:03:30.771Z,77.94
2018-02-25T01:04:19.824Z,78.19
2018-02-25T01:05:08.929Z,78.57
2018-02-25T01:05:57.980Z,78.67
2018-02-25T01:06:47.026Z,78.21
2018-02-25T01:07:36.080Z,78.43
2018-02-25T01:08:25.157Z,78.52
2018-02-25T01:09:14.199Z,78.51
2018-02-25T01:10:03.250Z,78.38
2018-02-25T01:10:52.348Z,78.61
2018-02-25T01:11:41.392Z,78.87
2018-02-25T01:12:30.448Z,78.32
2018-02-25T01:13:19.488Z,78.89
2018-02-25T01:14:08.531Z,79.09
2018-02-25T01:14:57.616Z,79.07
2018-02-25T01:15:46.706Z,79.27
2018-02-25T01:16:35.769Z,78.39
2018-02-25T01:17:24.813Z,78.32
2018-02-25T01:18:13.860Z,78.69
2018-02-25T01:19:02.919Z,78.28
2018-02-25T01:19:51.994Z,78.06
2018-02-25T01:20:41.040Z,78.24
2018-02-25T01:21:30.179Z,78.45
2018-02-25T01:22:19.232Z,79.24
2018-02-25T01:23:08.282Z,79.33
2018-02-25T01:23:57.324Z,79.06
2018-02-25T01:24:46.423Z,78.44
2018-02-25T01:25:35.462Z,78.80
2018-02-25T01:26:24.518Z,78.63
2018-02-25T01:27:13.624Z,78.48
2018-02-25T01:28:02.673Z,78.78
2018-02-25T01:28:51.725Z,79.13
2018-02-25T01:29:40.764Z,78.27
2018-02-25T01:30:29.813Z,78.58
2018-02-25T01:31:18.872Z,79.29
2018-02-25T01:32:07.970Z,79.67
2018-02-25T01:32:57.075Z,79.76
2018-02-25T01:33:46.107Z,79.81
2018-02-25T01:34:35.137Z,79.56
2018-02-25T01:35:24.183Z,79.68
2018-02-25T01:36:13.226Z,79.78
2018-02-25T01:37:02.276Z,78.81
2018-02-25T01:37:51.321Z,78.79
2018-02-25T01:38:40.690Z,78.61
2018-02-25T01:39:29.718Z,78.85
2018-02-25T01:40:18.769Z,78.46
2018-02-25T01:41:07.811Z,78.92
2018-02-25T01:41:56.853Z,79.36
2018-02-25T01:42:45.917Z,78.76
2018-02-25T01:43:35.024Z,78.80
2018-02-25T01:44:24.099Z,78.74
2018-02-25T01:45:13.134Z,79.37
2018-02-25T01:46:02.171Z,79.04
2018-02-25T01:46:51.220Z,79.95
2018-02-25T01:47:40.269Z,79.29
2018-02-25T01:48:29.308Z,79.45
2018-02-25T01:49:18.415Z,79.88
2018-02-25T01:50:07.459Z,79.21
2018-02-25T01:51:05.294Z,78.94
2018-02-25T01:51:54.343Z,79.34
2018-02-25T01:52:43.558Z,79.64
2018-02-25T01:53:32.605Z,78.81
2018-02-25T01:54:21.667Z,78.96
2018-02-25T01:55:10.712Z,79.04
2018-02-25T01:55:59.760Z,79.03
2018-02-25T01:56:48.826Z,79.21
2018-02-25T01:57:37.859Z,79.48
2018-02-25T01:58:29.985Z,79.05
2018-02-25T01:59:19.036Z,77.98
2018-02-25T02:00:08.115Z,77.66
2018-02-25T02:00:57.182Z,77.47
2018-02-25T02:01:46.224Z,76.80
2018-02-25T02:02:35.271Z,77.83
2018-02-25T02:03:24.350Z,77.34
2018-02-25T02:04:13.455Z,77.32
2018-02-25T02:05:02.505Z,77.46
2018-02-25T02:05:51.556Z,77.27
2018-02-25T02:06:40.672Z,77.67
2018-02-25T02:07:29.728Z,77.40
2018-02-25T02:08:18.783Z,77.90
2018-02-25T02:09:07.831Z,78.50
2018-02-25T02:09:56.866Z,78.07
2018-02-25T02:10:45.913Z,78.46
2018-02-25T02:11:34.972Z,78.68
2018-02-25T02:12:24.100Z,78.28
2018-02-25T02:13:13.156Z,77.34
2018-02-25T02:14:02.199Z,78.04
2018-02-25T02:14:51.238Z,78.46
2018-02-25T02:15:40.293Z,78.47
2018-02-25T02:16:29.358Z,78.78
2018-02-25T02:17:18.506Z,78.51
2018-02-25T02:18:07.550Z,78.56
2018-02-25T02:18:56.581Z,77.74
2018-02-25T02:19:45.620Z,78.90
2018-02-25T02:20:34.698Z,78.34
2018-02-25T02:21:23.762Z,78.40
2018-02-25T02:22:12.811Z,78.05
2018-02-25T02:23:02.081Z,77.49
2018-02-25T02:23:51.143Z,77.17
2018-02-25T02:24:40.205Z,77.80
2018-02-25T02:25:29.261Z,77.13
2018-02-25T02:26:18.311Z,77.65
2018-02-25T02:27:07.350Z,78.10
2018-02-25T02:27:56.455Z,77.81
2018-02-25T02:28:45.561Z,77.39
2018-02-25T02:29:34.619Z,76.62
2018-02-25T02:30:23.676Z,77.44
2018-02-25T02:31:12.801Z,77.11
2018-02-25T02:32:01.852Z,77.02
2018-02-25T02:32:50.929Z,77.22
2018-02-25T02:33:39.972Z,76.41
2018-02-25T02:34:29.071Z,77.25
2018-02-25T02:35:18.120Z,77.08
2018-02-25T02:36:07.167Z,77.37
2018-02-25T02:36:56.260Z,77.21
2018-02-25T02:37:45.323Z,76.99
2018-02-25T02:38:34.371Z,77.13
2018-02-25T02:39:23.433Z,76.23
2018-02-25T02:40:12.499Z,76.18
2018-02-25T02:41:01.578Z,76.39
2018-02-25T02:41:50.978Z,76.03
2018-02-25T02:42:40.034Z,75.89
2018-02-25T02:43:29.086Z,75.21
2018-02-25T02:44:18.285Z,76.06
2018-02-25T02:45:07.344Z,75.78
2018-02-25T02:45:56.405Z,75.60
2018-02-25T02:46:45.452Z,75.87
2018-02-25T02:47:34.513Z,75.62
2018-02-25T02:48:23.556Z,75.26
2018-02-25T02:49:12.615Z,75.70
2018-02-25T02:50:01.711Z,75.48
2018-02-25T02:50:50.768Z,75.19
2018-02-25T02:51:39.865Z,74.78
2018-02-25T02:52:28.906Z,75.13
2018-02-25T02:53:17.973Z,75.04
2018-02-25T02:54:07.089Z,74.92
2018-02-25T02:54:56.162Z,74.92
2018-02-25T02:55:45.214Z,74.82
2018-02-25T02:56:34.427Z,75.21
2018-02-25T02:57:23.698Z,75.79
2018-02-25T02:58:12.748Z,76.45
2018-02-25T02:59:01.801Z,76.47
2018-02-25T02:59:50.843Z,76.32
2018-02-25T03:00:39.916Z,76.78
2018-02-25T03:01:29.020Z,76.17
2018-02-25T03:02:18.066Z,75.57
2018-02-25T03:03:07.176Z,75.92
2018-02-25T03:03:56.244Z,76.27
2018-02-25T03:04:45.483Z,75.62
2018-02-25T03:05:34.531Z,75.55
2018-02-25T03:06:23.573Z,75.98
2018-02-25T03:07:12.639Z,75.14
2018-02-25T03:08:01.696Z,75.91
2018-02-25T03:08:50.749Z,75.41
2018-02-25T03:09:39.797Z,75.39
2018-02-25T03:10:28.895Z,75.35
2018-02-25T03:11:17.953Z,75.03
2018-02-25T03:12:06.985Z,75.94
2018-02-25T03:12:56.064Z,76.91
2018-02-25T03:13:45.127Z,77.04
2018-02-25T03:14:34.173Z,76.21
2018-02-25T03:15:23.245Z,76.79
2018-02-25T03:16:12.313Z,76.13
2018-02-25T03:17:01.358Z,76.43
2018-02-25T03:17:50.411Z,77.46
2018-02-25T03:18:39.494Z,76.89
2018-02-25T03:19:28.535Z,77.22
2018-02-25T03:20:17.587Z,77.60
2018-02-25T03:21:06.657Z,77.71
2018-02-25T03:21:55.727Z,78.25
2018-02-25T03:22:44.770Z,78.05
2018-02-25T03:23:33.820Z,77.99
2018-02-25T03:24:22.973Z,78.40
2018-02-25T03:25:12.031Z,77.97
2018-02-25T03:26:01.080Z,78.12
2018-02-25T03:26:50.114Z,78.16
2018-02-25T03:27:39.161Z,78.63
2018-02-25T03:28:28.219Z,78.45
2018-02-25T03:29:17.299Z,78.76
2018-02-25T03:30:07.364Z,78.59
2018-02-25T03:30:56.414Z,79.73
2018-02-25T03:31:45.449Z,78.31
2018-02-25T03:32:34.537Z,79.04
2018-02-25T03:33:23.587Z,78.88
2018-02-25T03:34:12.678Z,79.06
2018-02-25T03:35:01.724Z,78.04
2018-02-25T03:35:50.780Z,78.07
2018-02-25T03:36:39.835Z,78.70
2018-02-25T03:37:28.889Z,77.84
2018-02-25T03:38:17.968Z,77.42
2018-02-25T03:39:07.006Z,77.98
2018-02-25T03:39:56.062Z,77.16
2018-02-25T03:40:45.111Z,76.76
2018-02-25T03:41:34.161Z,76.80
2018-02-25T03:42:23.282Z,75.63
2018-02-25T03:43:12.333Z,75.29
2018-02-25T03:44:01.391Z,76.07
2018-02-25T03:44:50.437Z,76.08
2018-02-25T03:45:39.484Z,75.69
2018-02-25T03:46:28.715Z,76.46
2018-02-25T03:47:17.757Z,74.59
2018-02-25T03:48:07.082Z,74.95
2018-02-25T03:48:56.138Z,74.84
2018-02-25T03:49:45.190Z,75.82
2018-02-25T03:50:34.245Z,75.42
2018-02-25T03:51:23.296Z,74.62
2018-02-25T03:52:12.376Z,75.00
2018-02-25T03:53:01.411Z,75.08
2018-02-25T03:53:50.439Z,75.48
2018-02-25T03:54:39.501Z,75.28
2018-02-25T03:55:28.549Z,75.70
2018-02-25T03:56:17.658Z,75.17
2018-02-25T03:57:06.710Z,75.39
2018-02-25T03:57:55.794Z,75.50
2018-02-25T03:58:44.835Z,75.39
2018-02-25T03:59:36.743Z,75.91
2018-02-25T04:00:25.795Z,75.04
2018-02-25T04:01:14.850Z,75.36
2018-02-25T04:02:04.014Z,74.84
2018-02-25T04:02:53.071Z,74.97
2018-02-25T04:03:42.418Z,75.04
2018-02-25T04:04:31.464Z,73.99
2018-02-25T04:05:20.505Z,74.04
2018-02-25T04:06:09.575Z,74.14
2018-02-25T04:06:58.672Z,74.32
2018-02-25T04:07:47.830Z,74.49
2018-02-25T04:08:36.890Z,74.29
2018-02-25T04:09:25.945Z,74.78
2018-02-25T04:10:14.998Z,74.40
2018-02-25T04:11:04.047Z,75.15
2018-02-25T04:11:53.094Z,75.29
2018-02-25T04:12:42.139Z,75.10
2018-02-25T04:13:31.230Z,73.47
2018-02-25T04:14:20.269Z,73.44
2018-02-25T04:15:09.329Z,74.24
2018-02-25T04:15:58.378Z,73.56
2018-02-25T04:16:47.424Z,73.35
2018-02-25T04:17:36.505Z,74.10
2018-02-25T04:18:25.557Z,73.29
2018-02-25T04:19:14.604Z,74.13
2018-02-25T04:20:03.665Z,73.50
2018-02-25T04:20:52.745Z,74.38
2018-02-25T04:21:41.786Z,74.03
2018-02-25T04:22:30.833Z,72.82
2018-02-25T04:23:20.132Z,73.30
2018-02-25T04:24:09.262Z,72.97
2018-02-25T04:24:58.463Z,72.96
2018-02-25T04:25:47.513Z,72.75
2018-02-25T04:26:36.560Z,72.75
2018-02-25T04:27:25.953Z,73.76
2018-02-25T04:28:14.991Z,73.47
2018-02-25T04:29:04.052Z,73.35
2018-02-25T04:29:53.142Z,73.59
2018-02-25T04:30:42.180Z,74.37
2018-02-25T04:31:31.301Z,74.69
2018-02-25T04:32:20.367Z,73.78
2018-02-25T04:33:09.495Z,73.23
2018-02-25T04:33:58.558Z,73.43
2018-02-25T04:34:47.640Z,74.66
2018-02-25T04:35:36.689Z,73.39
2018-02-25T04:36:25.736Z,73.73
2018-02-25T04:37:14.780Z,73.90
2018-02-25T04:38:03.833Z,73.56
2018-02-25T04:38:52.911Z,74.54
2018-02-25T04:39:41.962Z,74.28
2018-02-25T04:40:31.008Z,74.12
2018-02-25T04:41:20.047Z,73.90
2018-02-25T04:42:09.133Z,74.16
2018-02-25T04:42:58.183Z,73.59
2018-02-25T04:43:47.231Z,74.36
2018-02-25T04:44:36.471Z,75.17
2018-02-25T04:45:25.510Z,73.51
2018-02-25T04:46:14.554Z,73.94
2018-02-25T04:47:03.648Z,73.43
2018-02-25T04:47:52.694Z,74.71
2018-02-25T04:48:41.749Z,73.42
2018-02-25T04:49:30.798Z,73.48
2018-02-25T04:50:19.851Z,73.98
2018-02-25T04:51:08.922Z,74.36
2018-02-25T04:51:57.976Z,75.53
2018-02-25T04:52:47.135Z,74.28
2018-02-25T04:53:36.407Z,75.47
2018-02-25T04:54:25.460Z,75.20
2018-02-25T04:55:14.514Z,75.77
2018-02-25T04:56:03.588Z,75.70
2018-02-25T04:56:52.710Z,75.99
2018-02-25T04:57:41.757Z,75.85
2018-02-25T04:58:30.809Z,76.81
2018-02-25T04:59:19.925Z,76.28
2018-02-25T05:00:09.011Z,76.55
2018-02-25T05:00:58.290Z,75.78
2018-02-25T05:01:47.338Z,74.91
2018-02-25T05:02:36.394Z,75.32
2018-02-25T05:03:25.440Z,75.53
2018-02-25T05:04:14.499Z,76.07
2018-02-25T05:05:03.546Z,74.67
2018-02-25T05:05:52.618Z,75.15
2018-02-25T05:06:41.673Z,75.36
2018-02-25T05:07:30.724Z,76.23
2018-02-25T05:08:19.776Z,76.67
2018-02-25T05:09:08.814Z,76.89
2018-02-25T05:09:57.864Z,76.00
2018-02-25T05:10:46.919Z,75.78
2018-02-25T05:11:36.026Z,76.35
2018-02-25T05:12:25.082Z,76.10
2018-02-25T05:13:14.218Z,76.13
2018-02-25T05:14:03.259Z,75.67
2018-02-25T05:14:52.305Z,76.96
2018-02-25T05:15:41.371Z,76.88
2018-02-25T05:16:30.617Z,75.33
2018-02-25T05:17:19.659Z,76.41
2018-02-25T05:18:08.801Z,75.56
2018-02-25T05:18:57.865Z,76.01
2018-02-25T05:19:46.925Z,76.62
2018-02-25T05:20:35.991Z,76.60
2018-02-25T05:21:25.042Z,76.43
2018-02-25T05:22:14.114Z,76.02
2018-02-25T05:23:03.181Z,76.17
2018-02-25T05:23:52.288Z,75.85
2018-02-25T05:24:41.338Z,76.06
2018-02-25T05:25:30.424Z,76.65
2018-02-25T05:26:19.463Z,76.55
2018-02-25T05:27:08.507Z,75.63
2018-02-25T05:27:57.559Z,76.00
2018-02-25T05:28:46.627Z,75.84
2018-02-25T05:29:35.680Z,76.11
2018-02-25T05:30:24.731Z,75.30
2018-02-25T05:31:13.839Z,75.42
2018-02-25T05:32:02.918Z,75.15
2018-02-25T05:32:51.992Z,73.65
2018-02-25T05:33:41.036Z,75.25
2018-02-25T05:34:30.083Z,74.18
2018-02-25T05:35:19.132Z,75.32
2018-02-25T05:36:08.277Z,75.30
2018-02-25T05:36:57.337Z,74.57
2018-02-25T05:38:00.668Z,75.62
2018-02-25T05:38:49.841Z,75.85
2018-02-25T05:39:38.951Z,75.30
2018-02-25T05:40:28.008Z,75.44
2018-02-25T05:41:17.306Z,74.84
2018-02-25T05:42:06.362Z,72.86
2018-02-25T05:42:55.394Z,72.97
2018-02-25T05:43:44.463Z,74.06
2018-02-25T05:44:33.521Z,74.82
2018-02-25T05:45:22.572Z,74.90
2018-02-25T05:46:11.638Z,75.26
2018-02-25T05:47:00.717Z,75.32
2018-02-25T05:47:49.778Z,75.03
2018-02-25T05:48:38.827Z,75.33
2018-02-25T05:49:27.909Z,75.76
2018-02-25T05:50:16.964Z,75.57
2018-02-25T05:51:06.028Z,76.69
2018-02-25T05:51:58.146Z,77.19
2018-02-25T05:52:47.260Z,77.54
2018-02-25T05:53:36.336Z,77.02
2018-02-25T05:54:25.390Z,76.50
2018-02-25T05:55:14.428Z,77.61
2018-02-25T05:56:03.475Z,76.01
2018-02-25T05:56:52.512Z,75.79
2018-02-25T05:57:41.670Z,75.68
2018-02-25T05:58:30.718Z,75.63
2018-02-25T05:59:19.764Z,75.66
2018-02-25T06:00:08.816Z,76.22
2018-02-25T06:00:57.868Z,75.83
2018-02-25T06:01:46.918Z,76.69
2018-02-25T06:02:35.967Z,77.21
2018-02-25T06:03:25.438Z,76.99
2018-02-25T06:04:14.565Z,75.96
2018-02-25T06:05:03.702Z,76.25
2018-02-25T06:05:52.809Z,76.49
2018-02-25T06:06:41.866Z,76.52
2018-02-25T06:07:30.945Z,76.23
2018-02-25T06:08:20.037Z,76.27
2018-02-25T06:09:09.130Z,76.97
2018-02-25T06:09:58.200Z,75.95
2018-02-25T06:10:47.263Z,76.16
2018-02-25T06:11:36.337Z,77.11
2018-02-25T06:12:25.409Z,76.61
2018-02-25T06:13:14.469Z,76.12
2018-02-25T06:14:03.575Z,76.18
2018-02-25T06:14:52.644Z,75.98
2018-02-25T06:15:41.791Z,75.55
2018-02-25T06:16:30.842Z,75.75
2018-02-25T06:17:19.910Z,76.18
2018-02-25T06:18:08.970Z,75.25
2018-02-25T06:18:58.053Z,74.89
2018-02-25T06:19:47.124Z,75.38
2018-02-25T06:20:36.210Z,75.21
2018-02-25T06:21:25.476Z,75.09
2018-02-25T06:22:14.552Z,75.51
2018-02-25T06:23:03.749Z,74.33
2018-02-25T06:23:52.826Z,75.21
2018-02-25T06:24:41.902Z,75.28
2018-02-25T06:25:30.969Z,75.29
2018-02-25T06:26:20.020Z,74.99
2018-02-25T06:27:09.076Z,74.96
2018-02-25T06:27:58.147Z,75.22
2018-02-25T06:28:47.269Z,75.77
2018-02-25T06:29:36.338Z,76.46
2018-02-25T06:30:25.423Z,75.32
2018-02-25T06:31:14.478Z,76.00
2018-02-25T06:32:03.541Z,75.84
2018-02-25T06:32:52.586Z,74.71
2018-02-25T06:33:41.642Z,74.95
2018-02-25T06:34:30.699Z,75.51
2018-02-25T06:35:19.797Z,74.89
2018-02-25T06:36:08.956Z,74.92
2018-02-25T06:36:58.015Z,75.56
2018-02-25T06:37:47.082Z,75.71
2018-02-25T06:38:36.140Z,75.07
2018-02-25T06:39:25.216Z,74.52
2018-02-25T06:40:14.269Z,74.42
2018-02-25T06:41:03.317Z,75.10
2018-02-25T06:41:52.599Z,75.58
2018-02-25T06:42:41.716Z,74.56
2018-02-25T06:43:30.804Z,74.70
2018-02-25T06:44:19.866Z,74.55
2018-02-25T06:45:08.919Z,75.07
2018-02-25T06:45:57.991Z,74.73
2018-02-25T06:46:47.058Z,75.47
2018-02-25T06:47:36.111Z,77.06
2018-02-25T06:48:25.375Z,73.45
2018-02-25T06:49:14.413Z,74.92
2018-02-25T06:50:03.469Z,73.19
2018-02-25T06:50:52.524Z,72.77
2018-02-25T06:51:41.594Z,72.11
2018-02-25T06:52:30.826Z,71.25
2018-02-25T06:53:19.879Z,72.78
2018-02-25T06:54:08.995Z,71.96
2018-02-25T06:54:58.078Z,71.55
2018-02-25T06:55:47.173Z,72.34
2018-02-25T06:56:36.243Z,71.88
2018-02-25T06:57:25.280Z,71.94
2018-02-25T06:58:14.322Z,72.01
2018-02-25T06:59:03.401Z,72.47
2018-02-25T06:59:52.627Z,72.12
2018-02-25T07:00:41.692Z,73.42
2018-02-25T07:01:30.750Z,73.33
2018-02-25T07:02:20.493Z,73.09
2018-02-25T07:03:09.538Z,72.42
2018-02-25T07:03:58.605Z,72.89
2018-02-25T07:04:47.661Z,71.84
2018-02-25T07:05:36.762Z,72.67
2018-02-25T07:06:25.830Z,72.60
2018-02-25T07:07:14.910Z,72.24
2018-02-25T07:08:03.960Z,72.80
2018-02-25T07:08:53.020Z,72.34
2018-02-25T07:09:42.108Z,72.22
2018-02-25T07:10:31.191Z,72.25
2018-02-25T07:11:20.471Z,73.09
2018-02-25T07:12:09.542Z,73.56
2018-02-25T07:12:58.773Z,73.71
2018-02-25T07:13:47.886Z,73.64
2018-02-25T07:14:37.150Z,72.80
2018-02-25T07:15:26.246Z,72.35
2018-02-25T07:16:15.309Z,73.18
2018-02-25T07:17:04.363Z,73.17
2018-02-25T07:17:53.425Z,73.25
2018-02-25T07:18:42.581Z,73.46
2018-02-25T07:19:31.646Z,73.13
2018-02-25T07:20:20.695Z,74.57
2018-02-25T07:21:09.758Z,73.21
2018-02-25T07:21:58.807Z,73.53
2018-02-25T07:22:47.859Z,73.19
2018-02-25T07:23:36.902Z,72.64
2018-02-25T07:24:25.993Z,73.42
2018-02-25T07:25:15.061Z,72.58
2018-02-25T07:26:04.119Z,72.82
2018-02-25T07:26:53.182Z,72.70
2018-02-25T07:27:42.244Z,72.60
2018-02-25T07:28:31.300Z,73.07
2018-02-25T07:29:20.372Z,72.85
2018-02-25T07:30:09.952Z,73.19
2018-02-25T07:30:59.004Z,73.13
2018-02-25T07:31:48.081Z,73.48
2018-02-25T07:32:37.143Z,73.15
2018-02-25T07:33:26.275Z,73.21
2018-02-25T07:34:15.343Z,73.23
2018-02-25T07:35:04.406Z,73.15
2018-02-25T07:35:53.461Z,72.76
2018-02-25T07:36:42.533Z,71.92
2018-02-25T07:37:31.578Z,72.46
2018-02-25T07:38:20.634Z,72.87
2018-02-25T07:39:09.805Z,72.39
2018-02-25T07:39:58.903Z,72.16
2018-02-25T07:40:47.969Z,71.94
2018-02-25T07:41:37.068Z,72.59
2018-02-25T07:42:26.251Z,72.56
2018-02-25T07:43:15.325Z,71.96
2018-02-25T07:44:04.468Z,72.75
2018-02-25T07:44:53.579Z,72.43
2018-02-25T07:45:42.858Z,72.80
2018-02-25T07:46:31.924Z,73.54
2018-02-25T07:47:21.005Z,73.85
2018-02-25T07:48:11.348Z,74.97
2018-02-25T07:49:00.407Z,73.45
2018-02-25T07:49:49.509Z,73.49
2018-02-25T07:50:38.548Z,73.51
2018-02-25T07:51:27.674Z,73.26
2018-02-25T07:52:16.774Z,73.44
2018-02-25T07:53:05.827Z,73.58
2018-02-25T07:53:56.863Z,73.72
2018-02-25T07:54:45.908Z,73.27
2018-02-25T07:55:34.985Z,73.02
2018-02-25T07:56:24.047Z,73.96
2018-02-25T07:57:13.238Z,73.50
2018-02-25T07:58:02.317Z,73.98
2018-02-25T07:58:51.377Z,72.26
2018-02-25T07:59:40.440Z,72.01
2018-02-25T08:00:29.505Z,72.32
2018-02-25T08:01:18.669Z,71.98
2018-02-25T08:02:07.740Z,72.63
2018-02-25T08:02:59.923Z,72.53
2018-02-25T08:03:48.986Z,73.49
2018-02-25T08:04:38.031Z,72.54
2018-02-25T08:05:27.108Z,72.54
2018-02-25T08:06:16.166Z,72.80
2018-02-25T08:07:05.238Z,73.17
2018-02-25T08:07:54.290Z,74.20
2018-02-25T08:08:43.392Z,73.16
2018-02-25T08:09:32.447Z,72.29
2018-02-25T08:10:21.663Z,73.26
2018-02-25T08:11:10.722Z,72.95
2018-02-25T08:11:59.860Z,73.05
2018-02-25T08:12:48.926Z,72.98
2018-02-25T08:13:38.035Z,73.12
2018-02-25T08:14:27.109Z,72.97
2018-02-25T08:15:16.212Z,72.78
2018-02-25T08:16:05.331Z,73.23
2018-02-25T08:16:54.454Z,72.21
2018-02-25T08:17:43.536Z,72.99
2018-02-25T08:18:32.605Z,72.27
2018-02-25T08:19:21.769Z,72.72
2018-02-25T08:20:10.994Z,72.03
2018-02-25T08:21:00.060Z,72.46
2018-02-25T08:21:49.110Z,73.11
2018-02-25T08:22:38.187Z,72.78
2018-02-25T08:23:27.281Z,71.49
2018-02-25T08:24:16.366Z,73.37
2018-02-25T08:25:05.431Z,71.75
2018-02-25T08:25:54.531Z,72.19
2018-02-25T08:26:43.599Z,71.97
2018-02-25T08:27:32.690Z,71.78
2018-02-25T08:28:21.755Z,71.30
2018-02-25T08:29:10.864Z,71.82
2018-02-25T08:29:59.933Z,71.46
2018-02-25T08:30:48.978Z,72.32
2018-02-25T08:31:38.070Z,72.28
2018-02-25T08:32:27.129Z,71.58
2018-02-25T08:33:16.209Z,72.23
2018-02-25T08:34:05.303Z,72.48
2018-02-25T08:34:54.369Z,72.30
2018-02-25T08:35:43.418Z,73.77
2018-02-25T08:36:32.461Z,72.33
2018-02-25T08:37:21.664Z,72.46
2018-02-25T08:38:10.707Z,72.97
2018-02-25T08:38:59.772Z,72.68
2018-02-25T08:39:48.837Z,74.19
2018-02-25T08:40:37.973Z,73.23
2018-02-25T08:41:27.100Z,72.14
2018-02-25T08:42:16.156Z,72.25
2018-02-25T08:43:05.242Z,72.48
2018-02-25T08:43:54.291Z,73.06
2018-02-25T08:44:43.343Z,73.47
2018-02-25T08:45:34.838Z,73.47
2018-02-25T08:46:23.890Z,74.22
2018-02-25T08:47:12.938Z,73.50
2018-02-25T08:48:02.022Z,74.70
2018-02-25T08:48:51.297Z,73.75
2018-02-25T08:49:40.374Z,75.36
2018-02-25T08:50:29.434Z,74.97
2018-02-25T08:51:18.509Z,74.12
2018-02-25T08:52:07.628Z,74.25
2018-02-25T08:52:56.695Z,74.82
2018-02-25T08:53:45.751Z,75.46
2018-02-25T08:54:34.881Z,74.83
2018-02-25T08:55:23.971Z,75.53
2018-02-25T08:56:13.133Z,74.60
2018-02-25T08:57:02.234Z,74.61
2018-02-25T08:57:51.306Z,75.10
2018-02-25T08:58:40.358Z,74.94
2018-02-25T08:59:29.428Z,75.60
2018-02-25T09:00:18.479Z,75.44
2018-02-25T09:01:07.530Z,75.19
2018-02-25T09:01:56.660Z,74.86
2018-02-25T09:02:45.841Z,74.57
2018-02-25T09:03:34.918Z,74.72
2018-02-25T09:04:23.990Z,73.86
2018-02-25T09:05:13.053Z,74.81
2018-02-25T09:06:02.100Z,74.94
2018-02-25T09:06:51.176Z,75.83
2018-02-25T09:07:40.250Z,75.17
2018-02-25T09:08:29.562Z,74.70
2018-02-25T09:09:18.624Z,74.82
2018-02-25T09:10:07.678Z,74.47
2018-02-25T09:10:56.938Z,74.58
2018-02-25T09:11:45.993Z,74.47
2018-02-25T09:12:35.080Z,75.26
2018-02-25T09:13:24.140Z,75.27
2018-02-25T09:14:13.256Z,74.27
2018-02-25T09:15:02.327Z,75.34
2018-02-25T09:15:51.430Z,74.57
2018-02-25T09:16:40.476Z,75.31
2018-02-25T09:17:29.518Z,75.36
2018-02-25T09:18:18.584Z,74.68
2018-02-25T09:19:07.646Z,75.85
2018-02-25T09:19:56.841Z,74.14
2018-02-25T09:20:45.896Z,74.76
2018-02-25T09:21:36.012Z,74.77
2018-02-25T09:22:25.074Z,73.66
2018-02-25T09:23:14.951Z,73.06
2018-02-25T09:24:04.047Z,74.38
2018-02-25T09:24:59.075Z,73.57
2018-02-25T09:25:48.182Z,74.38
2018-02-25T09:26:38.998Z,73.58
2018-02-25T09:27:30.092Z,72.47
2018-02-25T09:28:20.453Z,72.10
2018-02-25T09:29:11.659Z,73.59
2018-02-25T09:30:02.950Z,72.84
2018-02-25T09:30:53.040Z,72.46
2018-02-25T09:31:42.124Z,73.51
2018-02-25T09:32:34.324Z,74.12
2018-02-25T09:33:23.414Z,73.61
2018-02-25T09:34:13.332Z,73.37
2018-02-25T09:35:02.390Z,73.03
2018-02-25T09:35:51.559Z,72.50
2018-02-25T09:36:40.627Z,73.04
2018-02-25T09:37:29.664Z,73.15
2018-02-25T09:38:18.710Z,73.79
2018-02-25T09:39:08.589Z,74.35
2018-02-25T09:39:58.950Z,73.93
2018-02-25T09:40:48.784Z,73.60
2018-02-25T09:41:38.925Z,73.81
2018-02-25T09:42:28.070Z,74.04
2018-02-25T09:43:17.149Z,75.08
2018-02-25T09:44:06.224Z,76.17
2018-02-25T09:44:56.025Z,74.83
2018-02-25T09:45:45.265Z,74.10
2018-02-25T09:46:34.401Z,73.37
2018-02-25T09:47:23.565Z,73.89
2018-02-25T09:48:12.621Z,74.81
2018-02-25T09:49:01.707Z,74.21
2018-02-25T09:49:50.762Z,73.93
2018-02-25T09:50:39.843Z,75.16
2018-02-25T09:51:28.923Z,73.34
2018-02-25T09:52:18.104Z,73.40
2018-02-25T09:53:07.161Z,71.56
2018-02-25T09:53:57.115Z,73.35
2018-02-25T10:07:37.488Z,73.75
2018-02-25T10:08:26.547Z,74.28
2018-02-25T10:09:15.599Z,73.01
2018-02-25T10:10:04.780Z,73.33
2018-02-25T10:10:53.943Z,73.94
2018-02-25T10:11:42.996Z,72.99
2018-02-25T10:12:32.076Z,73.92
2018-02-25T10:13:21.135Z,74.42
2018-02-25T10:14:10.350Z,73.90
2018-02-25T10:14:59.401Z,74.26
2018-02-25T10:15:48.535Z,74.32
2018-02-25T10:16:37.583Z,73.31
2018-02-25T10:17:26.642Z,74.95
2018-02-25T10:18:15.704Z,73.91
2018-02-25T10:19:04.780Z,72.55
2018-02-25T10:19:53.841Z,72.88
2018-02-25T10:20:42.905Z,71.68
2018-02-25T10:21:32.046Z,71.75
2018-02-25T10:22:21.099Z,71.82
2018-02-25T10:23:10.150Z,72.46
2018-02-25T10:23:59.202Z,72.82
2018-02-25T10:24:48.269Z,72.59
2018-02-25T10:25:37.320Z,72.20
2018-02-25T10:26:26.365Z,71.88
2018-02-25T10:27:15.539Z,73.32
2018-02-25T10:28:04.594Z,70.98
2018-02-25T10:28:53.637Z,71.60
2018-02-25T10:29:42.690Z,73.18
2018-02-25T10:30:31.741Z,73.51
2018-02-25T10:31:20.817Z,71.57
2018-02-25T10:32:09.890Z,69.33
2018-02-25T10:32:58.997Z,71.38
2018-02-25T10:33:48.058Z,69.31
2018-02-25T10:34:37.126Z,69.84
2018-02-25T10:35:26.230Z,68.72
2018-02-25T10:36:15.393Z,68.86
2018-02-25T10:37:04.473Z,70.65
2018-02-25T10:37:53.519Z,69.91
2018-02-25T10:38:42.667Z,69.51
2018-02-25T10:39:31.692Z,69.10
2018-02-25T10:40:20.758Z,69.10
2018-02-25T10:41:09.818Z,69.71
2018-02-25T10:41:58.883Z,69.35
2018-02-25T10:42:47.935Z,69.99
2018-02-25T10:43:36.988Z,69.53
2018-02-25T10:44:26.274Z,72.84
2018-02-25T10:45:15.333Z,72.44
2018-02-25T10:46:04.376Z,73.16